createdAt,value
2018-04-15T00:00:03.572Z,19.40
2018-04-15T00:02:31.422Z,19.40
2018-04-15T00:04:58.918Z,19.50
2018-04-15T00:07:26.503Z,19.40
2018-04-15T00:09:54.142Z,19.40
2018-04-15T00:12:22.270Z,19.30
2018-04-15T00:14:49.814Z,19.30
2018-04-15T00:17:18.345Z,19.20
2018-04-15T00:19:45.896Z,19.30
2018-04-15T00:22:13.391Z,19.20
2018-04-15T00:24:40.923Z,19.20
2018-04-15T00:27:08.834Z,19.30
2018-04-15T00:29:36.330Z,19.20
2018-04-15T00:32:03.984Z,19.20
2018-04-15T00:34:31.493Z,19.20
2018-04-15T00:36:58.990Z,19.10
2018-04-15T00:39:27.718Z,19.00
2018-04-15T00:41:55.223Z,19.00
2018-04-15T00:44:23.486Z,19.10
2018-04-15T00:46:51.169Z,19.00
2018-04-15T00:49:19.543Z,19.00
2018-04-15T00:51:47.807Z,19.00
2018-04-15T00:54:16.918Z,18.90
2018-04-15T00:56:45.463Z,18.90
2018-04-15T00:59:13.023Z,18.90
2018-04-15T01:01:40.537Z,18.90
2018-04-15T01:04:08.031Z,18.80
2018-04-15T01:06:35.666Z,18.80
2018-04-15T01:09:03.182Z,18.90
2018-04-15T01:11:31.461Z,18.80
2018-04-15T01:13:59.731Z,18.80
2018-04-15T01:16:28.025Z,18.80
2018-04-15T01:18:56.550Z,18.80
2018-04-15T01:21:24.041Z,18.80
2018-04-15T01:23:51.602Z,18.70
2018-04-15T01:26:19.874Z,18.70
2018-04-15T01:28:47.524Z,18.60
2018-04-15T01:31:16.550Z,18.60
2018-04-15T01:33:44.826Z,18.70
2018-04-15T01:36:13.107Z,18.70
2018-04-15T01:38:41.424Z,18.60
2018-04-15T01:41:08.928Z,18.70
2018-04-15T01:43:37.213Z,18.60
2018-04-15T01:46:05.514Z,18.70
2018-04-15T01:48:33.026Z,18.60
2018-04-15T01:51:01.294Z,18.60
2018-04-15T01:53:30.340Z,18.60
2018-04-15T01:55:57.843Z,18.60
2018-04-15T01:58:25.411Z,18.60
2018-04-15T02:00:53.714Z,18.50
2018-04-15T02:03:21.991Z,18.60
2018-04-15T02:05:51.125Z,18.50
2018-04-15T02:08:18.686Z,18.50
2018-04-15T02:10:46.274Z,18.40
2018-04-15T02:13:13.803Z,18.40
2018-04-15T02:15:41.328Z,18.40
2018-04-15T02:18:09.600Z,18.30
2018-04-15T02:20:37.869Z,18.30
2018-04-15T02:23:06.308Z,18.40
2018-04-15T02:25:33.935Z,18.30
2018-04-15T02:28:01.451Z,18.30
2018-04-15T02:30:28.980Z,18.30
2018-04-15T02:32:56.757Z,18.40
2018-04-15T02:35:24.309Z,18.30
2018-04-15T02:37:51.866Z,18.20
2018-04-15T02:40:19.631Z,18.30
2018-04-15T02:42:47.311Z,18.20
2018-04-15T02:45:14.839Z,18.20
2018-04-15T02:47:42.338Z,18.20
2018-04-15T02:50:11.394Z,18.30
2018-04-15T02:52:39.062Z,18.30
2018-04-15T02:55:06.566Z,18.30
2018-04-15T02:57:35.793Z,18.20
2018-04-15T03:00:03.325Z,18.20
2018-04-15T03:02:31.614Z,18.20
2018-04-15T03:04:59.887Z,18.20
2018-04-15T03:07:28.238Z,18.10
2018-04-15T03:09:55.743Z,18.10
2018-04-15T03:12:23.306Z,18.10
2018-04-15T03:14:50.847Z,18.10
2018-04-15T03:17:19.119Z,18.10
2018-04-15T03:19:47.661Z,18.10
2018-04-15T03:22:15.209Z,18.10
2018-04-15T03:24:42.717Z,18.10
2018-04-15T03:27:10.986Z,18.00
2018-04-15T03:29:39.277Z,18.00
2018-04-15T03:32:07.807Z,18.00
2018-04-15T03:34:35.310Z,18.00
2018-04-15T03:37:03.626Z,17.90
2018-04-15T03:39:31.507Z,17.90
2018-04-15T03:41:59.014Z,17.90
2018-04-15T03:44:27.324Z,17.90
2018-04-15T03:46:54.826Z,17.90
2018-04-15T03:49:23.123Z,17.90
2018-04-15T03:51:51.425Z,17.80
2018-04-15T03:54:18.929Z,17.80
2018-04-15T03:56:46.434Z,17.90
2018-04-15T03:59:13.964Z,17.90
2018-04-15T04:01:42.226Z,17.80
2018-04-15T04:04:09.870Z,17.80
2018-04-15T04:06:37.400Z,17.80
2018-04-15T04:09:05.131Z,17.90
2018-04-15T04:11:33.417Z,17.80
2018-04-15T04:14:01.739Z,17.80
2018-04-15T04:16:29.254Z,17.80
2018-04-15T04:19:09.369Z,17.80
2018-04-15T04:21:50.382Z,17.70
2018-04-15T04:24:30.725Z,17.80
2018-04-15T04:26:58.426Z,17.70
2018-04-15T04:29:26.777Z,17.70
2018-04-15T04:31:55.154Z,17.70
2018-04-15T04:34:23.434Z,17.60
2018-04-15T04:36:51.939Z,17.70
2018-04-15T04:39:19.637Z,17.70
2018-04-15T04:41:47.646Z,17.70
2018-04-15T04:44:15.919Z,17.60
2018-04-15T04:46:44.214Z,17.60
2018-04-15T04:49:11.725Z,17.60
2018-04-15T04:51:39.222Z,17.60
2018-04-15T04:54:07.517Z,17.60
2018-04-15T04:56:35.023Z,17.50
2018-04-15T04:59:02.527Z,17.60
2018-04-15T05:01:30.321Z,17.60
2018-04-15T05:03:57.991Z,17.60
2018-04-15T05:06:25.494Z,17.60
2018-04-15T05:08:53.799Z,17.50
2018-04-15T05:11:21.319Z,17.60
2018-04-15T05:13:49.614Z,17.50
2018-04-15T05:16:17.909Z,17.50
2018-04-15T05:18:45.443Z,17.50
2018-04-15T05:21:13.719Z,17.70
2018-04-15T05:23:42.023Z,17.80
2018-04-15T05:26:09.539Z,17.80
2018-04-15T05:28:37.834Z,17.90
2018-04-15T05:31:06.138Z,17.90
2018-04-15T05:33:33.688Z,17.90
2018-04-15T05:36:01.199Z,17.90
2018-04-15T05:38:30.289Z,17.80
2018-04-15T05:40:57.813Z,17.80
2018-04-15T05:43:25.702Z,17.90
2018-04-15T05:45:53.287Z,18.00
2018-04-15T05:48:21.848Z,18.10
2018-04-15T05:50:49.376Z,18.10
2018-04-15T05:53:17.166Z,18.30
2018-04-15T05:55:44.686Z,18.60
2018-04-15T05:58:12.258Z,18.50
2018-04-15T06:00:39.882Z,18.50
2018-04-15T06:03:08.326Z,18.70
2018-04-15T06:05:35.949Z,18.70
2018-04-15T06:08:03.617Z,18.80
2018-04-15T06:10:31.330Z,18.80
2018-04-15T06:12:58.851Z,18.90
2018-04-15T06:15:26.516Z,18.90
2018-04-15T06:17:54.862Z,18.90
2018-04-15T06:20:23.139Z,19.00
2018-04-15T06:22:51.484Z,19.00
2018-04-15T06:25:19.216Z,19.00
2018-04-15T06:27:46.746Z,19.10
2018-04-15T06:30:14.278Z,19.00
2018-04-15T06:32:41.794Z,19.00
2018-04-15T06:35:09.331Z,19.10
2018-04-15T06:37:36.969Z,19.10
2018-04-15T06:40:05.308Z,19.10
2018-04-15T06:42:32.782Z,19.00
2018-04-15T06:45:00.386Z,19.10
2018-04-15T06:47:28.796Z,19.10
2018-04-15T06:49:56.335Z,19.10
2018-04-15T06:52:23.889Z,19.10
2018-04-15T06:54:51.428Z,19.20
2018-04-15T06:57:19.715Z,19.30
2018-04-15T06:59:47.271Z,19.20
2018-04-15T07:02:15.817Z,19.30
2018-04-15T07:04:43.340Z,19.30
2018-04-15T07:07:10.881Z,19.40
2018-04-15T07:09:38.440Z,19.40
2018-04-15T07:12:06.020Z,19.40
2018-04-15T07:14:33.545Z,19.40
2018-04-15T07:17:01.868Z,19.50
2018-04-15T07:19:29.630Z,19.50
2018-04-15T07:21:57.176Z,19.60
2018-04-15T07:27:45.863Z,27.20
2018-04-15T07:30:14.183Z,21.20
2018-04-15T07:32:41.728Z,21.10
2018-04-15T07:35:10.045Z,19.90
2018-04-15T07:37:38.356Z,19.90
2018-04-15T07:40:05.888Z,19.80
2018-04-15T07:42:34.205Z,19.80
2018-04-15T07:45:01.740Z,19.80
2018-04-15T07:47:30.027Z,19.70
2018-04-15T07:49:58.348Z,19.80
2018-04-15T07:52:25.903Z,19.80
2018-04-15T07:54:53.441Z,19.80
2018-04-15T07:57:21.215Z,19.80
2018-04-15T07:59:48.760Z,19.80
2018-04-15T08:02:16.334Z,19.80
2018-04-15T08:04:43.851Z,19.80
2018-04-15T08:07:11.571Z,19.70
2018-04-15T08:09:39.087Z,19.80
2018-04-15T08:12:07.593Z,19.80
2018-04-15T08:14:35.897Z,19.90
2018-04-15T08:17:04.183Z,19.90
2018-04-15T08:19:32.572Z,20.00
2018-04-15T08:22:00.861Z,19.90
2018-04-15T08:24:29.144Z,19.90
2018-04-15T08:26:57.467Z,19.70
2018-04-15T08:29:24.995Z,19.70
2018-04-15T08:31:52.556Z,19.70
2018-04-15T08:34:20.213Z,19.70
2018-04-15T08:36:47.732Z,19.70
2018-04-15T08:39:16.007Z,19.70
2018-04-15T08:41:44.315Z,19.60
2018-04-15T08:44:11.831Z,19.60
2018-04-15T08:46:39.345Z,19.70
2018-04-15T08:49:07.678Z,19.80
2018-04-15T08:51:35.419Z,19.80
2018-04-15T08:54:03.773Z,19.90
2018-04-15T08:56:31.734Z,19.90
2018-04-15T08:58:59.483Z,20.00
2018-04-15T09:07:22.867Z,20.00
2018-04-15T09:09:50.627Z,20.10
2018-04-15T09:12:19.404Z,20.00
2018-04-15T09:14:46.961Z,20.00
2018-04-15T09:17:14.469Z,20.00
2018-04-15T09:19:43.796Z,20.10
2018-04-15T09:22:11.334Z,20.10
2018-04-15T09:24:38.874Z,20.10
2018-04-15T09:27:07.445Z,20.20
2018-04-15T09:29:35.036Z,20.20
2018-04-15T09:32:02.603Z,20.20
2018-04-15T09:34:32.822Z,20.30
2018-04-15T09:37:01.117Z,20.30
2018-04-15T09:39:28.659Z,20.30
2018-04-15T09:41:58.315Z,20.40
2018-04-15T09:44:28.736Z,20.40
2018-04-15T09:46:56.314Z,20.40
2018-04-15T09:49:24.090Z,20.40
2018-04-15T09:51:52.660Z,20.50
2018-04-15T09:54:20.188Z,20.50
2018-04-15T09:56:47.783Z,20.50
2018-04-15T09:59:15.548Z,20.40
2018-04-15T10:01:43.154Z,20.40
2018-04-15T10:04:11.654Z,20.50
2018-04-15T10:06:39.189Z,20.50
2018-04-15T10:09:07.645Z,20.50
2018-04-15T10:11:35.370Z,20.50
2018-04-15T10:14:02.891Z,20.50
2018-04-15T10:16:30.582Z,20.50
2018-04-15T10:18:58.152Z,20.50
2018-04-15T10:21:25.781Z,20.60
2018-04-15T10:23:54.051Z,20.60
2018-04-15T10:26:22.394Z,20.70
2018-04-15T10:28:49.971Z,20.60
2018-04-15T10:31:17.488Z,20.60
2018-04-15T10:33:45.075Z,20.60
2018-04-15T10:36:12.605Z,20.60
2018-04-15T10:38:40.154Z,20.70
2018-04-15T10:41:08.320Z,20.70
2018-04-15T10:43:35.844Z,20.70
2018-04-15T10:46:03.405Z,20.70
2018-04-15T10:48:31.711Z,20.80
2018-04-15T10:50:59.246Z,20.80
2018-04-15T10:53:27.542Z,20.80
2018-04-15T10:55:55.078Z,20.80
2018-04-15T10:58:22.698Z,20.80
2018-04-15T11:00:50.255Z,20.80
2018-04-15T11:03:17.762Z,20.80
2018-04-15T11:05:46.083Z,20.90
2018-04-15T11:08:13.662Z,20.90
2018-04-15T11:10:41.631Z,20.90
2018-04-15T11:13:09.140Z,20.90
2018-04-15T11:15:37.431Z,21.00
2018-04-15T11:18:04.995Z,21.00
2018-04-15T11:20:32.553Z,20.90
2018-04-15T11:23:00.155Z,21.00
2018-04-15T11:25:27.703Z,21.00
2018-04-15T11:27:55.249Z,21.10
2018-04-15T11:30:22.989Z,21.10
2018-04-15T11:32:50.566Z,21.10
2018-04-15T11:35:18.145Z,21.10
2018-04-15T11:37:45.674Z,21.10
2018-04-15T11:40:13.198Z,21.20
2018-04-15T11:42:41.508Z,21.10
2018-04-15T11:45:09.061Z,21.10
2018-04-15T11:47:37.363Z,21.20
2018-04-15T11:50:04.954Z,21.20
2018-04-15T11:52:32.566Z,21.20
2018-04-15T11:55:00.179Z,21.30
2018-04-15T11:57:27.756Z,21.30
2018-04-15T11:59:56.244Z,21.40
2018-04-15T12:02:24.561Z,21.30
2018-04-15T12:04:52.201Z,21.30
2018-04-15T12:07:19.825Z,21.40
2018-04-15T12:09:47.394Z,21.40
2018-04-15T12:12:15.034Z,21.30
2018-04-15T12:14:43.334Z,21.40
2018-04-15T12:17:12.437Z,21.40
2018-04-15T12:23:41.327Z,26.40
2018-04-15T12:26:09.621Z,25.00
2018-04-15T12:28:38.032Z,23.90
2018-04-15T12:31:05.614Z,23.90
2018-04-15T12:33:33.663Z,23.70
2018-04-15T12:36:01.990Z,23.50
2018-04-15T12:38:30.111Z,23.50
2018-04-15T12:40:57.687Z,23.40
2018-04-15T12:47:45.531Z,27.00
2018-04-15T12:50:13.095Z,25.70
2018-04-15T12:52:41.371Z,24.50
2018-04-15T12:58:14.703Z,25.80
2018-04-15T13:00:42.438Z,25.60
2018-04-15T13:03:10.103Z,26.90
2018-04-15T13:05:37.627Z,31.40
2018-04-15T13:08:05.571Z,27.80
2018-04-15T13:10:33.083Z,24.40
2018-04-15T13:13:01.408Z,22.50
2018-04-15T13:15:29.150Z,22.40
2018-04-15T13:17:56.674Z,22.20
2018-04-15T13:20:24.542Z,22.20
2018-04-15T13:22:52.056Z,22.10
2018-04-15T13:25:19.621Z,22.00
2018-04-15T13:27:47.270Z,22.00
2018-04-15T13:30:14.784Z,22.10
2018-04-15T13:32:43.107Z,22.20
2018-04-15T13:35:11.385Z,22.20
2018-04-15T13:37:39.719Z,22.10
2018-04-15T13:40:07.243Z,22.10
2018-04-15T13:42:35.666Z,21.90
2018-04-15T13:45:03.268Z,21.90
2018-04-15T13:47:30.787Z,21.90
2018-04-15T13:50:00.069Z,21.80
2018-04-15T13:52:28.368Z,21.80
2018-04-15T13:54:55.891Z,21.80
2018-04-15T13:57:23.420Z,21.80
2018-04-15T13:59:51.132Z,21.80
2018-04-15T14:02:18.692Z,21.80
2018-04-15T14:04:46.212Z,21.90
2018-04-15T14:07:13.716Z,22.00
2018-04-15T14:09:42.016Z,22.00
2018-04-15T14:12:10.459Z,22.10
2018-04-15T14:14:38.003Z,22.00
2018-04-15T14:17:05.529Z,22.20
2018-04-15T14:19:33.050Z,22.30
2018-04-15T14:22:00.579Z,22.40
2018-04-15T14:24:28.959Z,23.00
2018-04-15T14:26:57.328Z,24.00
2018-04-15T14:29:24.816Z,24.00
2018-04-15T14:31:52.347Z,24.60
2018-04-15T14:34:19.881Z,25.00
2018-04-15T14:36:48.335Z,24.80
2018-04-15T14:39:15.879Z,24.80
2018-04-15T14:41:43.452Z,24.40
2018-04-15T14:48:20.998Z,27.30
2018-04-15T14:50:48.548Z,27.10
2018-04-15T14:53:16.842Z,25.60
2018-04-15T14:55:45.115Z,26.00
2018-04-15T14:58:13.391Z,25.90
2018-04-15T15:00:40.982Z,25.90
2018-04-15T15:03:08.548Z,25.70
2018-04-15T15:05:37.040Z,25.30
2018-04-15T16:01:25.143Z,28.10
2018-04-15T16:03:52.756Z,27.90
2018-04-15T16:06:21.070Z,27.40
2018-04-15T16:08:49.362Z,27.20
2018-04-15T16:11:16.878Z,26.70
2018-04-15T16:13:46.175Z,25.90
2018-04-15T16:16:13.708Z,25.20
2018-04-15T16:18:41.291Z,24.20
2018-04-15T16:21:08.829Z,23.70
2018-04-15T16:23:36.342Z,23.30
2018-04-15T16:26:04.650Z,23.10
2018-04-15T16:28:32.198Z,22.80
2018-04-15T16:30:59.883Z,22.70
2018-04-15T16:33:27.441Z,22.60
2018-04-15T16:35:54.953Z,22.50
2018-04-15T16:38:23.587Z,22.30
2018-04-15T16:40:51.116Z,22.20
2018-04-15T16:43:19.002Z,22.00
2018-04-15T16:45:46.535Z,22.00
2018-04-15T16:48:14.447Z,21.90
2018-04-15T16:50:42.042Z,22.00
2018-04-15T16:53:10.401Z,21.80
2018-04-15T16:55:38.849Z,21.60
2018-04-15T16:58:06.399Z,21.30
2018-04-15T17:00:33.926Z,21.30
2018-04-15T17:03:02.254Z,21.20
2018-04-15T17:05:29.925Z,21.00
2018-04-15T17:07:57.980Z,20.90
2018-04-15T17:10:26.735Z,20.60
2018-04-15T17:12:56.248Z,20.40
2018-04-15T17:15:23.864Z,20.20
2018-04-15T17:17:52.279Z,20.00
2018-04-15T17:20:19.843Z,19.90
2018-04-15T17:22:47.407Z,19.70
2018-04-15T17:25:15.308Z,19.70
2018-04-15T17:27:43.003Z,19.50
2018-04-15T17:30:11.283Z,19.40
2018-04-15T17:32:38.905Z,19.40
2018-04-15T17:35:06.672Z,19.40
2018-04-15T17:37:34.174Z,19.30
2018-04-15T17:40:01.730Z,19.20
2018-04-15T17:42:29.288Z,19.10
2018-04-15T17:44:56.787Z,19.10
2018-04-15T17:47:24.347Z,19.00
2018-04-15T17:49:51.862Z,19.00
2018-04-15T17:52:20.235Z,18.90
2018-04-15T17:54:47.769Z,18.90
2018-04-15T17:57:15.282Z,18.90
2018-04-15T17:59:42.846Z,18.80
2018-04-15T18:02:10.346Z,18.80
2018-04-15T18:04:38.203Z,18.80
2018-04-15T18:07:05.715Z,18.80
2018-04-15T18:09:34.002Z,18.70
2018-04-15T18:12:03.039Z,18.60
2018-04-15T18:14:30.578Z,18.60
2018-04-15T18:16:58.361Z,18.50
2018-04-15T18:19:26.058Z,18.50
2018-04-15T18:21:54.412Z,18.40
2018-04-15T18:24:21.954Z,18.40
2018-04-15T18:26:49.607Z,18.40
2018-04-15T18:29:17.140Z,18.40
2018-04-15T18:31:44.661Z,18.30
2018-04-15T18:34:12.182Z,18.20
2018-04-15T18:36:40.288Z,18.20
2018-04-15T18:39:08.289Z,18.10
2018-04-15T18:41:36.626Z,18.10
2018-04-15T18:44:04.170Z,18.10
2018-04-15T18:46:31.712Z,18.00
2018-04-15T18:48:59.263Z,17.90
2018-04-15T18:51:26.803Z,17.90
2018-04-15T18:53:55.116Z,17.80
2018-04-15T18:56:23.471Z,17.70
2018-04-15T18:58:50.984Z,17.70
2018-04-15T19:01:18.724Z,17.60
2018-04-15T19:03:46.242Z,17.50
2018-04-15T19:06:14.261Z,17.50
2018-04-15T19:08:41.817Z,17.50
2018-04-15T19:11:09.380Z,17.40
2018-04-15T19:13:36.907Z,17.40
2018-04-15T19:16:05.574Z,17.40
2018-04-15T19:18:34.309Z,17.30
2018-04-15T19:21:01.866Z,17.30
2018-04-15T19:23:29.425Z,17.30
2018-04-15T19:25:57.019Z,17.20
2018-04-15T19:28:26.211Z,17.10
2018-04-15T19:30:54.191Z,17.10
2018-04-15T19:33:21.788Z,17.10
2018-04-15T19:35:49.306Z,17.10
2018-04-15T19:38:17.097Z,17.10
2018-04-15T19:40:45.413Z,17.10
2018-04-15T19:43:12.942Z,17.00
2018-04-15T19:45:40.476Z,17.00
2018-04-15T19:48:08.745Z,17.00
2018-04-15T19:50:36.276Z,17.00
2018-04-15T19:53:03.795Z,17.00
2018-04-15T19:55:31.363Z,17.00
2018-04-15T19:57:58.915Z,17.00
2018-04-15T20:00:26.451Z,17.00
2018-04-15T20:02:54.843Z,17.00
2018-04-15T20:05:22.345Z,16.90
2018-04-15T20:07:49.884Z,17.00
2018-04-15T20:10:17.513Z,16.90
2018-04-15T20:12:45.801Z,16.90
2018-04-15T20:15:15.097Z,16.90
2018-04-15T20:17:42.605Z,16.90
2018-04-15T20:20:10.132Z,16.90
2018-04-15T20:22:37.711Z,16.90
2018-04-15T20:25:05.314Z,16.80
2018-04-15T20:27:34.697Z,16.90
2018-04-15T20:30:02.530Z,16.90
2018-04-15T20:32:30.290Z,15.60
2018-04-15T20:34:57.969Z,16.80
2018-04-15T20:37:25.480Z,16.80
2018-04-15T20:39:53.782Z,16.80
2018-04-15T20:42:21.284Z,16.80
2018-04-15T20:44:49.698Z,16.80
2018-04-15T20:47:17.977Z,16.80
2018-04-15T20:49:47.147Z,16.80
2018-04-15T20:52:15.462Z,16.70
2018-04-15T20:54:42.981Z,16.70
2018-04-15T20:57:10.826Z,16.70
2018-04-15T20:59:38.388Z,16.70
2018-04-15T21:02:05.960Z,16.70
2018-04-15T21:04:33.593Z,16.70
2018-04-15T21:07:01.359Z,16.70
2018-04-15T21:09:29.330Z,16.70
2018-04-15T21:11:56.923Z,16.70
2018-04-15T21:14:24.761Z,16.70
2018-04-15T21:16:52.304Z,16.60
2018-04-15T21:19:22.180Z,16.60
2018-04-15T21:21:49.751Z,16.60
2018-04-15T21:24:18.070Z,16.60
2018-04-15T21:26:45.834Z,16.60
2018-04-15T21:29:13.415Z,16.60
2018-04-15T21:31:40.953Z,16.50
2018-04-15T21:34:08.481Z,16.50
2018-04-15T21:36:36.283Z,16.50
2018-04-15T21:39:05.983Z,16.40
2018-04-15T21:41:33.842Z,16.40
2018-04-15T21:44:01.424Z,16.40
2018-04-15T21:46:28.921Z,16.40
2018-04-15T21:48:57.255Z,16.40
2018-04-15T21:51:24.743Z,16.30
2018-04-15T21:53:53.073Z,16.30
2018-04-15T21:56:20.744Z,16.30
2018-04-15T21:58:48.503Z,16.30
2018-04-15T22:01:16.392Z,16.30
2018-04-15T22:03:43.904Z,16.40
2018-04-15T22:06:11.489Z,16.30
2018-04-15T22:08:39.351Z,16.20
2018-04-15T22:11:06.938Z,16.20
2018-04-15T22:13:34.455Z,16.10
2018-04-15T22:16:01.965Z,16.10
2018-04-15T22:18:30.291Z,16.00
2018-04-15T22:20:58.069Z,16.00
2018-04-15T22:23:26.283Z,16.00
2018-04-15T22:25:55.327Z,15.90
2018-04-15T22:28:22.835Z,15.90
2018-04-15T22:30:50.377Z,15.90
2018-04-15T22:33:17.974Z,15.80
2018-04-15T22:35:46.421Z,15.80
2018-04-15T22:38:13.942Z,15.80
2018-04-15T22:40:41.853Z,15.70
2018-04-15T22:43:09.694Z,15.70
2018-04-15T22:45:37.952Z,15.60
2018-04-15T22:48:07.134Z,15.60
2018-04-15T22:50:38.417Z,15.50
2018-04-15T22:53:06.444Z,15.50
2018-04-15T22:55:35.134Z,15.50
2018-04-15T22:58:03.528Z,15.50
2018-04-15T23:00:31.129Z,15.50
2018-04-15T23:02:58.664Z,15.40
2018-04-15T23:05:26.183Z,15.40
2018-04-15T23:07:54.598Z,15.40
2018-04-15T23:10:22.487Z,15.40
2018-04-15T23:12:50.030Z,15.30
2018-04-15T23:15:17.576Z,15.30
2018-04-15T23:17:45.096Z,15.30
2018-04-15T23:20:13.371Z,15.30
2018-04-15T23:22:41.662Z,15.30
2018-04-15T23:25:09.957Z,15.30
2018-04-15T23:27:37.498Z,15.30
2018-04-15T23:30:05.804Z,15.30
2018-04-15T23:32:33.306Z,15.30
2018-04-15T23:35:00.825Z,15.30
2018-04-15T23:37:29.048Z,15.30
2018-04-15T23:39:58.109Z,15.30
2018-04-15T23:42:25.597Z,15.30
2018-04-15T23:44:53.116Z,15.30
2018-04-15T23:47:20.610Z,15.30
2018-04-15T23:49:48.117Z,15.30
2018-04-15T23:52:15.766Z,15.30
2018-04-15T23:54:43.302Z,15.30
2018-04-15T23:57:11.594Z,15.20
2018-04-15T23:59:39.138Z,15.20
